Terminal Aerodrome Forecast
Issued by NWS Brownsville, TX

Home | Current Version | Previous Version | Text Only | Print | Product List | Glossary On
Versions: 1 2 3 4 5 6 7 8 9 10 11 12 13 14 15 16 17 18 19 20 21 22 23 24
871
FTUS44 KBRO 200521
TAFHRL
TAF
KHRL 200521Z 2006/2106 16015G22KT P6SM BKN015
     FM200800 16016G22KT P6SM BKN009 OVC015
     FM201500 16017G28KT P6SM OVC035
     FM210200 15014G20KT P6SM SCT009 BKN015=

USA.gov is the U.S. government's official web portal to all federal, state and local government web resources and services.